Lithia Springs, Pennsylvania
Current Conditions -  °F | °C
As of 6:53 PM on Saturday 25 Oct 2014 (Local Time) from KSEG Reporting Station
Overcast Overcast  
Wind Chill: 63°   Ceiling: 5500
Heat Index: 63°   Visibility: 10mi
Dew Point: 48°   Wind: 3mph
Humidity: 58%   Direction: 200°SSW
Pressure: 29.67"   Gusts: NA
Location:  40.9293°N, 76.7662°W
Report Text: KSEG 252253Z AUTO 20003KT 10SM OVC055 17/09 A2967 RMK AO2 SLP048 T01720089
Loading
Personal Weather Stations






























Interactive Weather Map
Tropical Storm Tracking
New forecast layout! Learn more

10-Day Weather Forecast

Advertisements
Track Severe Weather on mobile